createdAt,value
2018-07-27T00:00:57.969Z,3.60
2018-07-27T00:01:57.975Z,4.10
2018-07-27T00:02:57.979Z,7.50
2018-07-27T00:03:57.989Z,3.80
2018-07-27T00:04:58.004Z,3.30
2018-07-27T00:05:58.009Z,3.50
2018-07-27T00:06:58.015Z,4.30
2018-07-27T00:07:58.030Z,6.00
2018-07-27T00:08:58.032Z,3.50
2018-07-27T00:09:58.048Z,3.40
2018-07-27T00:10:58.053Z,3.80
2018-07-27T00:11:58.064Z,3.50
2018-07-27T00:12:58.069Z,4.20
2018-07-27T00:13:58.080Z,3.80
2018-07-27T00:14:58.084Z,3.80
2018-07-27T00:15:58.096Z,4.80
2018-07-27T00:16:58.108Z,4.00
2018-07-27T00:17:58.115Z,3.20
2018-07-27T00:18:58.126Z,3.70
2018-07-27T00:19:58.134Z,4.40
2018-07-27T00:20:58.140Z,3.80
2018-07-27T00:21:58.149Z,3.40
2018-07-27T00:22:58.163Z,4.30
2018-07-27T00:23:58.166Z,4.50
2018-07-27T00:24:58.173Z,4.10
2018-07-27T00:25:58.185Z,3.80
2018-07-27T00:26:58.191Z,3.60
2018-07-27T00:27:58.202Z,4.70
2018-07-27T00:28:58.212Z,3.40
2018-07-27T00:29:58.223Z,3.60
2018-07-27T00:30:58.226Z,3.40
2018-07-27T00:31:58.236Z,4.00
2018-07-27T00:32:58.244Z,4.00
2018-07-27T00:33:58.253Z,3.50
2018-07-27T00:34:58.263Z,3.60
2018-07-27T00:35:58.267Z,3.70
2018-07-27T00:36:58.276Z,3.50
2018-07-27T00:37:58.288Z,5.00
2018-07-27T00:38:58.298Z,4.40
2018-07-27T00:39:58.307Z,4.40
2018-07-27T00:40:58.313Z,4.20
2018-07-27T00:41:58.322Z,4.40
2018-07-27T00:42:58.331Z,3.90
2018-07-27T00:43:58.342Z,4.60
2018-07-27T00:44:58.346Z,4.10
2018-07-27T00:45:58.356Z,3.60
2018-07-27T00:46:58.364Z,4.90
2018-07-27T00:47:58.375Z,4.40
2018-07-27T00:48:58.382Z,3.60
2018-07-27T00:49:58.391Z,4.50
2018-07-27T00:50:58.400Z,3.90
2018-07-27T00:51:58.404Z,3.50
2018-07-27T00:52:58.417Z,4.00
2018-07-27T00:53:58.425Z,4.70
2018-07-27T00:54:58.431Z,4.90
2018-07-27T00:55:58.440Z,4.60
2018-07-27T00:56:58.454Z,3.80
2018-07-27T00:57:58.462Z,3.80
2018-07-27T00:58:58.468Z,3.60
2018-07-27T00:59:58.478Z,5.30
2018-07-27T01:00:58.481Z,3.90
2018-07-27T01:01:58.492Z,3.70
2018-07-27T01:02:58.504Z,5.60
2018-07-27T01:03:58.510Z,3.80
2018-07-27T01:04:58.522Z,4.60
2018-07-27T01:05:58.532Z,4.40
2018-07-27T01:06:58.534Z,4.40
2018-07-27T01:07:58.542Z,4.40
2018-07-27T01:08:58.556Z,3.90
2018-07-27T01:09:58.563Z,3.90
2018-07-27T01:10:58.570Z,4.20
2018-07-27T01:11:58.576Z,4.90
2018-07-27T01:12:58.588Z,4.30
2018-07-27T01:13:58.596Z,6.10
2018-07-27T01:14:58.599Z,4.60
2018-07-27T01:15:58.611Z,5.40
2018-07-27T01:16:58.620Z,4.30
2018-07-27T01:17:58.627Z,4.00
2018-07-27T01:18:58.635Z,4.20
2018-07-27T01:19:58.650Z,3.90
2018-07-27T01:20:58.657Z,5.90
2018-07-27T01:21:58.667Z,3.70
2018-07-27T01:22:58.671Z,4.10
2018-07-27T01:23:58.672Z,3.80
2018-07-27T01:24:58.687Z,4.10
2018-07-27T01:25:58.695Z,4.60
2018-07-27T01:26:58.705Z,5.10
2018-07-27T01:27:58.714Z,3.90
2018-07-27T01:28:58.730Z,4.70
2018-07-27T01:29:58.732Z,3.90
2018-07-27T01:30:58.741Z,4.10
2018-07-27T01:31:58.745Z,4.00
2018-07-27T01:32:58.759Z,4.10
2018-07-27T01:33:58.766Z,4.00
2018-07-27T01:34:58.774Z,4.00
2018-07-27T01:35:58.784Z,3.90
2018-07-27T01:36:58.793Z,4.20
2018-07-27T01:37:58.804Z,4.10
2018-07-27T01:38:58.813Z,4.40
2018-07-27T01:39:58.820Z,4.60
2018-07-27T01:40:58.826Z,4.70
2018-07-27T01:41:58.837Z,5.80
2018-07-27T01:42:58.844Z,4.70
2018-07-27T01:43:58.852Z,5.80
2018-07-27T01:44:58.859Z,4.10
2018-07-27T01:45:58.869Z,4.10
2018-07-27T01:46:58.877Z,4.40
2018-07-27T01:47:58.887Z,4.10
2018-07-27T01:48:58.897Z,3.80
2018-07-27T01:49:58.903Z,4.20
2018-07-27T01:50:58.917Z,4.10
2018-07-27T01:51:58.919Z,3.80
2018-07-27T01:52:58.934Z,3.90
2018-07-27T01:53:58.939Z,4.00
2018-07-27T01:54:58.952Z,5.60
2018-07-27T01:55:58.957Z,5.20
2018-07-27T01:56:58.997Z,4.80
2018-07-27T01:57:58.973Z,4.40
2018-07-27T01:58:58.983Z,4.90
2018-07-27T01:59:58.995Z,5.20
2018-07-27T02:00:59.003Z,5.00
2018-07-27T02:01:59.007Z,5.40
2018-07-27T02:02:59.017Z,5.00
2018-07-27T02:03:59.025Z,4.50
2018-07-27T02:04:59.035Z,5.30
2018-07-27T02:05:59.068Z,5.20
2018-07-27T02:06:59.052Z,4.70
2018-07-27T02:07:59.058Z,4.30
2018-07-27T02:08:59.078Z,4.40
2018-07-27T02:09:59.073Z,4.30
2018-07-27T02:10:59.082Z,4.30
2018-07-27T02:11:59.098Z,4.70
2018-07-27T02:12:59.128Z,4.50
2018-07-27T02:13:59.112Z,4.90
2018-07-27T02:14:59.121Z,4.90
2018-07-27T02:15:59.128Z,5.30
2018-07-27T02:16:59.140Z,5.40
2018-07-27T02:17:59.146Z,5.00
2018-07-27T02:18:59.154Z,4.60
2018-07-27T02:19:59.160Z,4.70
2018-07-27T02:20:59.175Z,6.40
2018-07-27T02:21:59.182Z,4.80
2018-07-27T02:22:59.188Z,6.00
2018-07-27T02:23:59.196Z,4.30
2018-07-27T02:24:59.203Z,4.50
2018-07-27T02:26:03.553Z,4.30
2018-07-27T02:26:59.225Z,4.30
2018-07-27T02:27:59.230Z,4.20
2018-07-27T02:28:59.243Z,4.00
2018-07-27T02:29:59.251Z,4.30
2018-07-27T02:30:59.260Z,5.50
2018-07-27T02:31:59.267Z,4.50
2018-07-27T02:32:59.272Z,4.20
2018-07-27T02:33:59.287Z,4.40
2018-07-27T02:34:59.289Z,4.70
2018-07-27T02:35:59.302Z,5.10
2018-07-27T02:36:59.304Z,5.30
2018-07-27T02:37:59.317Z,4.20
2018-07-27T02:38:59.321Z,5.90
2018-07-27T02:39:59.349Z,5.00
2018-07-27T02:40:59.348Z,4.90
2018-07-27T02:41:59.352Z,4.50
2018-07-27T02:42:59.356Z,5.30
2018-07-27T02:43:59.363Z,4.70
2018-07-27T02:44:59.372Z,4.90
2018-07-27T02:45:59.383Z,5.10
2018-07-27T02:46:59.394Z,4.60
2018-07-27T02:47:59.398Z,4.50
2018-07-27T02:48:59.403Z,4.20
2018-07-27T02:49:59.411Z,4.40
2018-07-27T02:50:59.420Z,4.50
2018-07-27T02:51:59.429Z,4.50
2018-07-27T02:52:59.437Z,4.60
2018-07-27T02:53:59.446Z,5.30
2018-07-27T02:54:59.456Z,4.40
2018-07-27T02:55:59.461Z,4.50
2018-07-27T02:56:59.473Z,5.90
2018-07-27T02:57:59.476Z,6.00
2018-07-27T02:58:59.486Z,4.70
2018-07-27T02:59:59.495Z,5.10
2018-07-27T03:00:59.503Z,4.50
2018-07-27T03:01:59.515Z,5.40
2018-07-27T03:02:59.515Z,5.40
2018-07-27T03:03:59.531Z,4.70
2018-07-27T03:04:59.533Z,4.60
2018-07-27T03:05:59.546Z,4.40
2018-07-27T03:06:59.556Z,5.00
2018-07-27T03:07:59.564Z,5.00
2018-07-27T03:08:59.566Z,4.50
2018-07-27T03:09:59.573Z,4.80
2018-07-27T03:10:59.581Z,4.70
2018-07-27T03:11:59.591Z,4.30
2018-07-27T03:12:59.603Z,4.60
2018-07-27T03:13:59.614Z,4.80
2018-07-27T03:14:59.615Z,5.80
2018-07-27T03:15:59.627Z,4.50
2018-07-27T03:16:59.643Z,5.60
2018-07-27T03:17:59.648Z,4.60
2018-07-27T03:18:59.669Z,4.60
2018-07-27T03:19:59.659Z,5.60
2018-07-27T03:20:59.667Z,4.70
2018-07-27T03:21:59.672Z,4.40
2018-07-27T03:22:59.679Z,4.60
2018-07-27T03:23:59.691Z,4.70
2018-07-27T03:24:59.701Z,4.70
2018-07-27T03:25:59.705Z,4.50
2018-07-27T03:26:59.714Z,5.10
2018-07-27T03:27:59.723Z,6.10
2018-07-27T03:28:59.729Z,4.50
2018-07-27T03:29:59.734Z,5.50
2018-07-27T03:30:59.752Z,4.90
2018-07-27T03:31:59.757Z,4.90
2018-07-27T03:32:59.765Z,4.40
2018-07-27T03:33:59.768Z,4.90
2018-07-27T03:34:59.776Z,4.90
2018-07-27T03:35:59.782Z,5.80
2018-07-27T03:36:59.795Z,5.00
2018-07-27T03:37:59.807Z,5.10
2018-07-27T03:38:59.811Z,5.20
2018-07-27T03:39:59.821Z,4.80
2018-07-27T03:40:59.823Z,5.00
2018-07-27T03:41:59.858Z,4.60
2018-07-27T03:42:59.841Z,4.80
2018-07-27T03:43:59.848Z,4.50
2018-07-27T03:44:59.860Z,4.60
2018-07-27T03:45:59.866Z,4.80
2018-07-27T03:46:59.875Z,5.20
2018-07-27T03:47:59.878Z,5.20
2018-07-27T03:48:59.887Z,5.00
2018-07-27T03:49:59.898Z,5.20
2018-07-27T03:50:59.905Z,5.10
2018-07-27T03:51:59.913Z,5.10
2018-07-27T03:52:59.921Z,5.00
2018-07-27T03:53:59.929Z,5.00
2018-07-27T03:54:59.950Z,5.50
2018-07-27T03:55:59.945Z,4.90
2018-07-27T03:56:59.956Z,5.00
2018-07-27T03:57:59.967Z,5.40
2018-07-27T03:58:59.969Z,5.00
2018-07-27T03:59:59.977Z,4.90
2018-07-27T04:00:59.983Z,5.30
2018-07-27T04:01:59.996Z,5.50
2018-07-27T04:03:00.000Z,5.10
2018-07-27T04:04:00.011Z,5.10
2018-07-27T04:05:00.021Z,5.20
2018-07-27T04:06:00.036Z,5.10
2018-07-27T04:07:00.038Z,5.70
2018-07-27T04:08:00.040Z,4.90
2018-07-27T04:09:00.054Z,5.00
2018-07-27T04:10:00.059Z,5.20
2018-07-27T04:11:00.061Z,5.00
2018-07-27T04:12:00.074Z,4.90
2018-07-27T04:13:00.077Z,5.00
2018-07-27T04:14:00.085Z,5.20
2018-07-27T04:15:00.149Z,6.10
2018-07-27T04:16:00.107Z,5.70
2018-07-27T04:17:00.111Z,5.50
2018-07-27T04:18:00.119Z,5.00
2018-07-27T04:19:00.130Z,5.00
2018-07-27T04:20:00.126Z,5.10
2018-07-27T04:21:00.143Z,6.40
2018-07-27T04:22:00.151Z,5.50
2018-07-27T04:23:00.161Z,5.00
2018-07-27T04:24:00.168Z,5.30
2018-07-27T04:25:00.176Z,4.80
2018-07-27T04:26:00.185Z,5.00
2018-07-27T04:27:00.192Z,4.80
2018-07-27T04:28:00.198Z,5.10
2018-07-27T04:29:00.201Z,6.80
2018-07-27T04:30:00.216Z,5.50
2018-07-27T04:31:00.221Z,5.70
2018-07-27T04:32:00.232Z,5.10
2018-07-27T04:33:00.234Z,5.80
2018-07-27T04:34:00.245Z,5.10
2018-07-27T04:35:00.252Z,6.40
2018-07-27T04:36:00.257Z,4.90
2018-07-27T04:37:00.272Z,4.80
2018-07-27T04:38:00.286Z,5.80
2018-07-27T04:39:00.283Z,5.40
2018-07-27T04:40:00.292Z,5.70
2018-07-27T04:41:00.298Z,6.30
2018-07-27T04:42:00.308Z,5.40
2018-07-27T04:43:00.364Z,5.40
2018-07-27T04:44:00.326Z,6.10
2018-07-27T04:45:00.330Z,5.30
2018-07-27T04:46:00.341Z,6.60
2018-07-27T04:47:00.345Z,5.20
2018-07-27T04:48:00.359Z,5.50
2018-07-27T04:49:00.364Z,6.60
2018-07-27T04:50:00.372Z,7.30
2018-07-27T04:51:00.378Z,5.60
2018-07-27T04:52:00.390Z,5.20
2018-07-27T04:53:00.400Z,6.20
2018-07-27T04:54:00.413Z,5.30
2018-07-27T04:55:00.409Z,6.10
2018-07-27T04:56:00.422Z,5.30
2018-07-27T04:57:00.429Z,6.20
2018-07-27T04:58:00.434Z,5.40
2018-07-27T04:59:00.442Z,6.70
2018-07-27T05:00:00.455Z,5.10
2018-07-27T05:01:00.462Z,5.60
2018-07-27T05:02:00.466Z,5.10
2018-07-27T05:03:00.477Z,5.60
2018-07-27T05:04:00.484Z,5.70
2018-07-27T05:05:00.491Z,5.40
2018-07-27T05:06:00.494Z,5.50
2018-07-27T05:07:00.506Z,5.20
2018-07-27T05:08:00.512Z,5.20
2018-07-27T05:09:00.522Z,5.30
2018-07-27T05:10:00.528Z,5.50
2018-07-27T05:11:00.538Z,5.40
2018-07-27T05:12:00.540Z,5.40
2018-07-27T05:13:00.562Z,5.30
2018-07-27T05:14:00.562Z,7.00
2018-07-27T05:15:00.563Z,5.80
2018-07-27T05:16:00.575Z,5.40
2018-07-27T05:17:00.580Z,5.20
2018-07-27T05:18:00.591Z,6.00
2018-07-27T05:19:00.642Z,6.60
2018-07-27T05:20:00.608Z,5.30
2018-07-27T05:21:00.617Z,5.30
2018-07-27T05:22:00.625Z,6.20
2018-07-27T05:23:00.630Z,5.90
2018-07-27T05:24:00.645Z,6.10
2018-07-27T05:25:00.647Z,5.50
2018-07-27T05:26:00.679Z,5.10
2018-07-27T05:27:00.664Z,5.50
2018-07-27T05:28:00.670Z,5.60
2018-07-27T05:29:00.687Z,5.70
2018-07-27T05:30:00.686Z,5.70
2018-07-27T05:31:00.690Z,6.10
2018-07-27T05:32:00.708Z,5.20
2018-07-27T05:33:00.714Z,5.30
2018-07-27T05:34:00.720Z,5.40
2018-07-27T05:35:00.726Z,5.40
2018-07-27T05:36:00.734Z,5.50
2018-07-27T05:37:00.741Z,6.40
2018-07-27T05:38:00.752Z,6.00
2018-07-27T05:39:00.761Z,5.10
2018-07-27T05:40:00.775Z,6.50
2018-07-27T05:41:00.781Z,5.30
2018-07-27T05:42:00.786Z,4.90
2018-07-27T05:43:00.795Z,5.40
2018-07-27T05:44:00.806Z,5.60
2018-07-27T05:45:00.813Z,8.20
2018-07-27T05:46:00.816Z,5.60
2018-07-27T05:47:00.903Z,6.20
2018-07-27T05:48:00.832Z,5.50
2018-07-27T05:49:00.843Z,4.90
2018-07-27T05:50:00.852Z,6.70
2018-07-27T05:51:00.864Z,5.70
2018-07-27T05:52:00.870Z,5.30
2018-07-27T05:53:00.879Z,5.10
2018-07-27T05:54:00.888Z,5.50
2018-07-27T05:55:00.893Z,5.10
2018-07-27T05:56:00.904Z,6.60
2018-07-27T05:57:00.908Z,5.10
2018-07-27T05:58:00.918Z,6.00
2018-07-27T05:59:00.924Z,5.30
2018-07-27T06:00:00.944Z,5.60
2018-07-27T06:01:00.953Z,5.50
2018-07-27T06:02:00.961Z,7.20
2018-07-27T06:03:00.992Z,6.50
2018-07-27T06:04:00.966Z,6.20
2018-07-27T06:05:00.983Z,5.70
2018-07-27T06:06:00.997Z,5.90
2018-07-27T06:07:01.000Z,5.90
2018-07-27T06:08:01.006Z,6.70
2018-07-27T06:09:01.022Z,5.50
2018-07-27T06:10:01.024Z,6.40
2018-07-27T06:11:01.034Z,7.30
2018-07-27T06:12:01.041Z,5.60
2018-07-27T06:13:01.055Z,5.10
2018-07-27T06:14:01.064Z,5.70
2018-07-27T06:15:01.075Z,5.30
2018-07-27T06:16:01.082Z,5.70
2018-07-27T06:17:01.089Z,5.40
2018-07-27T06:18:01.177Z,6.10
2018-07-27T06:19:01.105Z,5.80
2018-07-27T06:20:01.114Z,5.60
2018-07-27T06:21:01.137Z,5.40
2018-07-27T06:22:01.128Z,5.10
2018-07-27T06:23:01.145Z,5.20
2018-07-27T06:24:01.295Z,5.30
2018-07-27T06:25:01.161Z,10.50
2018-07-27T06:26:01.172Z,8.10
2018-07-27T06:27:01.182Z,7.00
2018-07-27T06:28:01.195Z,7.10
2018-07-27T06:29:01.196Z,6.60
2018-07-27T06:30:01.275Z,5.60
2018-07-27T06:31:01.215Z,5.60
2018-07-27T06:32:01.250Z,5.50
2018-07-27T06:33:01.239Z,6.70
2018-07-27T06:34:01.244Z,5.40
2018-07-27T06:35:01.254Z,4.90
2018-07-27T06:36:01.270Z,7.20
2018-07-27T06:37:01.276Z,6.30
2018-07-27T06:38:01.284Z,7.70
2018-07-27T06:39:01.348Z,5.30
2018-07-27T06:40:01.304Z,6.40
2018-07-27T06:41:01.312Z,6.40
2018-07-27T06:42:01.323Z,7.40
2018-07-27T06:43:01.333Z,5.40
2018-07-27T06:44:01.354Z,6.60
2018-07-27T06:45:01.348Z,6.10
2018-07-27T06:46:01.361Z,6.70
2018-07-27T06:47:01.366Z,4.80
2018-07-27T06:48:01.385Z,5.60
2018-07-27T06:49:01.393Z,5.00
2018-07-27T06:50:01.402Z,5.80
2018-07-27T06:51:01.413Z,5.10
2018-07-27T06:52:01.420Z,5.90
2018-07-27T06:53:01.428Z,8.90
2018-07-27T06:54:01.439Z,5.10
2018-07-27T06:55:01.464Z,5.20
2018-07-27T06:56:01.458Z,5.00
2018-07-27T06:57:01.471Z,5.40
2018-07-27T06:58:01.476Z,5.20
2018-07-27T06:59:01.486Z,7.80
2018-07-27T07:00:01.495Z,7.20
2018-07-27T07:01:01.513Z,9.20
2018-07-27T07:02:01.520Z,5.10
2018-07-27T07:03:01.529Z,6.00
2018-07-27T07:04:01.536Z,7.10
2018-07-27T07:05:01.555Z,4.80
2018-07-27T07:06:01.563Z,6.70
2018-07-27T07:07:01.566Z,5.30
2018-07-27T07:08:01.579Z,5.00
2018-07-27T07:09:01.625Z,6.70
2018-07-27T07:10:01.603Z,38.20
2018-07-27T07:11:01.611Z,25.00
2018-07-27T07:12:01.623Z,23.90
2018-07-27T07:13:01.635Z,16.70
2018-07-27T07:14:01.643Z,18.70
2018-07-27T07:15:01.659Z,20.50
2018-07-27T07:16:01.662Z,11.20
2018-07-27T07:17:01.670Z,11.10
2018-07-27T07:18:01.682Z,11.10
2018-07-27T07:19:01.690Z,11.20
2018-07-27T07:20:01.714Z,12.70
2018-07-27T07:21:01.718Z,10.60
2018-07-27T07:22:01.729Z,11.30
2018-07-27T07:23:01.736Z,12.30
2018-07-27T07:24:01.745Z,11.50
2018-07-27T07:25:01.757Z,12.40
2018-07-27T07:26:02.064Z,11.70
2018-07-27T07:27:01.782Z,9.30
2018-07-27T07:28:01.787Z,7.70
2018-07-27T07:29:01.800Z,8.00
2018-07-27T07:30:01.812Z,10.30
2018-07-27T07:31:01.815Z,10.00
2018-07-27T07:32:01.836Z,10.90
2018-07-27T07:33:01.857Z,10.90
2018-07-27T07:34:01.852Z,8.60
2018-07-27T07:35:01.863Z,9.90
2018-07-27T07:36:01.876Z,8.70
2018-07-27T07:37:01.883Z,8.10
2018-07-27T07:38:01.900Z,8.50
2018-07-27T07:39:01.911Z,8.40
2018-07-27T07:40:01.918Z,7.40
2018-07-27T07:41:01.931Z,8.40
2018-07-27T07:42:01.938Z,10.70
2018-07-27T07:43:01.955Z,7.70
2018-07-27T07:44:01.955Z,9.00
2018-07-27T07:45:01.999Z,10.00
2018-07-27T07:46:01.986Z,9.70
2018-07-27T07:47:01.990Z,10.70
2018-07-27T07:48:02.001Z,6.30
2018-07-27T07:49:02.015Z,8.90
2018-07-27T07:50:02.023Z,10.30
2018-07-27T07:51:02.031Z,8.40
2018-07-27T07:52:02.049Z,13.40
2018-07-27T07:53:02.054Z,12.20
2018-07-27T07:54:02.069Z,6.80
2018-07-27T07:55:02.076Z,8.80
2018-07-27T07:56:02.092Z,9.60
2018-07-27T07:57:02.100Z,6.10
2018-07-27T07:58:02.115Z,6.70
2018-07-27T07:59:02.122Z,8.50
2018-07-27T08:00:02.136Z,10.10
2018-07-27T08:01:02.148Z,7.40
2018-07-27T08:02:02.178Z,8.10
2018-07-27T08:03:02.169Z,6.90
2018-07-27T08:04:02.182Z,5.50
2018-07-27T08:05:02.187Z,6.80
2018-07-27T08:06:02.198Z,7.40
2018-07-27T08:07:02.209Z,7.00
2018-07-27T08:08:02.216Z,5.50
2018-07-27T08:09:02.232Z,8.40
2018-07-27T08:10:02.292Z,9.50
2018-07-27T08:11:02.251Z,7.30
2018-07-27T08:12:02.272Z,5.70
2018-07-27T08:13:02.278Z,7.50
2018-07-27T08:14:02.288Z,7.20
2018-07-27T08:15:02.311Z,11.40
2018-07-27T08:16:02.310Z,9.40
2018-07-27T08:17:02.323Z,7.70
2018-07-27T08:18:02.338Z,7.70
2018-07-27T08:19:02.347Z,8.50
2018-07-27T08:20:02.353Z,8.10
2018-07-27T08:21:02.368Z,8.60
2018-07-27T08:22:02.375Z,9.40
2018-07-27T08:23:02.388Z,8.40
2018-07-27T08:24:02.395Z,8.80
2018-07-27T08:25:02.410Z,7.70
2018-07-27T08:26:02.439Z,9.90
2018-07-27T08:27:02.436Z,7.10
2018-07-27T08:28:02.447Z,9.40
2018-07-27T08:29:02.452Z,8.90
2018-07-27T08:30:02.466Z,9.50
2018-07-27T08:31:02.487Z,9.60
2018-07-27T08:32:02.489Z,8.30
2018-07-27T08:33:02.503Z,7.30
2018-07-27T08:34:02.506Z,7.60
2018-07-27T08:35:02.522Z,11.90
2018-07-27T08:36:02.534Z,8.30
2018-07-27T08:37:02.545Z,6.70
2018-07-27T08:38:02.554Z,10.20
2018-07-27T08:39:02.619Z,8.50
2018-07-27T08:40:02.578Z,11.40
2018-07-27T08:41:02.591Z,7.20
2018-07-27T08:42:02.602Z,5.10
2018-07-27T08:43:02.619Z,6.40
2018-07-27T08:44:02.622Z,7.20
2018-07-27T08:45:02.635Z,8.00
2018-07-27T08:46:02.647Z,8.80
2018-07-27T08:47:02.657Z,9.20
2018-07-27T08:48:02.671Z,10.60
2018-07-27T08:49:02.678Z,13.10
2018-07-27T08:50:02.690Z,12.20
2018-07-27T08:51:02.709Z,10.80
2018-07-27T08:52:02.717Z,11.20
2018-07-27T08:53:02.723Z,7.80
2018-07-27T08:54:02.735Z,10.90
2018-07-27T08:55:02.746Z,9.70
2018-07-27T08:56:02.755Z,9.90
2018-07-27T08:57:02.769Z,11.60
2018-07-27T08:58:02.782Z,8.90
2018-07-27T08:59:02.797Z,6.20
2018-07-27T09:00:02.807Z,6.40
2018-07-27T09:01:02.817Z,6.30
2018-07-27T09:02:02.825Z,10.90
2018-07-27T09:03:02.834Z,9.10
2018-07-27T09:04:03.046Z,8.60
2018-07-27T09:05:02.859Z,8.30
2018-07-27T09:06:02.880Z,9.10
2018-07-27T09:07:02.892Z,6.50
2018-07-27T09:08:02.895Z,7.50
2018-07-27T09:09:02.908Z,8.20
2018-07-27T09:10:02.919Z,6.60
2018-07-27T09:11:02.934Z,9.50
2018-07-27T09:12:02.940Z,5.60
2018-07-27T09:13:02.958Z,4.70
2018-07-27T09:14:02.969Z,7.00
2018-07-27T09:15:02.976Z,6.00
2018-07-27T09:16:02.985Z,4.80
2018-07-27T09:17:03.000Z,7.80
2018-07-27T09:18:03.016Z,6.30
2018-07-27T09:19:03.021Z,5.70
2018-07-27T09:20:03.038Z,6.10
2018-07-27T09:21:03.059Z,6.70
2018-07-27T09:22:03.056Z,6.10
2018-07-27T09:23:03.067Z,7.40
2018-07-27T09:24:03.081Z,4.60
2018-07-27T09:25:03.377Z,5.10
2018-07-27T09:26:03.106Z,5.30
2018-07-27T09:27:03.116Z,6.50
2018-07-27T09:28:03.127Z,5.30
2018-07-27T09:29:03.151Z,5.70
2018-07-27T09:30:03.151Z,7.40
2018-07-27T09:31:03.165Z,5.00
2018-07-27T09:32:03.170Z,6.30
2018-07-27T09:33:03.184Z,5.50
2018-07-27T09:34:03.260Z,6.20
2018-07-27T09:35:03.219Z,4.90
2018-07-27T09:36:03.218Z,6.10
2018-07-27T09:37:03.231Z,5.00
2018-07-27T09:38:03.245Z,5.80
2018-07-27T09:39:03.258Z,5.30
2018-07-27T09:40:03.265Z,4.60
2018-07-27T09:41:03.282Z,5.50
2018-07-27T09:42:03.295Z,6.80
2018-07-27T09:43:03.305Z,5.60
2018-07-27T09:44:03.316Z,4.10
2018-07-27T09:45:03.324Z,4.70
2018-07-27T09:46:03.340Z,5.10
2018-07-27T09:47:03.347Z,6.10
2018-07-27T09:48:03.360Z,4.70
2018-07-27T09:49:03.380Z,5.70
2018-07-27T09:50:03.381Z,4.90
2018-07-27T09:51:03.394Z,4.20
2018-07-27T09:52:03.406Z,4.30
2018-07-27T09:53:03.419Z,4.70
2018-07-27T09:54:03.453Z,4.90
2018-07-27T09:55:03.438Z,4.70
2018-07-27T09:56:03.459Z,4.40
2018-07-27T09:57:03.470Z,6.40
2018-07-27T09:58:03.484Z,5.70
2018-07-27T09:59:03.490Z,4.00
2018-07-27T10:00:03.500Z,5.20
2018-07-27T10:01:03.514Z,5.30
2018-07-27T10:02:03.527Z,4.20
2018-07-27T10:03:03.537Z,4.30
2018-07-27T10:04:03.553Z,4.20
2018-07-27T10:05:03.561Z,5.20
2018-07-27T10:06:03.575Z,5.80
2018-07-27T10:07:03.583Z,4.90
2018-07-27T10:08:03.596Z,5.00
2018-07-27T10:09:03.606Z,6.00
2018-07-27T10:10:03.620Z,5.40
2018-07-27T10:11:03.630Z,5.40
2018-07-27T10:12:03.639Z,6.00
2018-07-27T10:13:03.648Z,5.40
2018-07-27T10:14:03.668Z,5.70
2018-07-27T10:15:03.694Z,12.50
2018-07-27T10:16:03.692Z,21.80
2018-07-27T10:17:03.700Z,19.40
2018-07-27T10:18:03.715Z,18.10
2018-07-27T10:19:03.731Z,18.00
2018-07-27T10:20:03.736Z,16.40
2018-07-27T10:21:03.745Z,15.60
2018-07-27T10:22:03.767Z,14.10
2018-07-27T10:23:03.772Z,10.80
2018-07-27T10:24:03.821Z,11.30
2018-07-27T10:25:03.797Z,11.20
2018-07-27T10:26:03.803Z,11.30
2018-07-27T10:27:03.822Z,11.00
2018-07-27T10:28:03.849Z,11.00
2018-07-27T10:29:03.836Z,10.30
2018-07-27T10:30:03.858Z,13.40
2018-07-27T10:31:03.869Z,9.10
2018-07-27T10:32:03.881Z,13.50
2018-07-27T10:33:03.895Z,11.00
2018-07-27T10:34:03.909Z,11.50
2018-07-27T10:35:03.915Z,11.50
2018-07-27T10:36:03.925Z,9.70
2018-07-27T10:37:03.940Z,12.50
2018-07-27T10:38:03.951Z,9.60
2018-07-27T10:39:03.969Z,11.20
2018-07-27T10:40:03.972Z,9.90
2018-07-27T10:41:03.986Z,10.90
2018-07-27T10:42:03.998Z,11.00
2018-07-27T10:43:04.012Z,10.60
2018-07-27T10:44:04.042Z,13.20
2018-07-27T10:45:04.035Z,10.70
2018-07-27T10:46:04.045Z,10.70
2018-07-27T10:47:04.051Z,10.20
2018-07-27T10:48:04.067Z,10.30
2018-07-27T10:49:04.076Z,8.30
2018-07-27T10:50:04.177Z,9.70
2018-07-27T10:51:04.107Z,10.30
2018-07-27T10:52:04.116Z,9.40
2018-07-27T10:53:04.127Z,9.80
2018-07-27T10:54:04.145Z,10.00
2018-07-27T10:55:04.152Z,9.30
2018-07-27T10:56:04.182Z,8.30
2018-07-27T10:57:04.176Z,10.60
2018-07-27T10:58:04.185Z,10.60
2018-07-27T10:59:04.198Z,8.60
2018-07-27T11:00:04.208Z,10.90
2018-07-27T11:01:04.222Z,8.80
2018-07-27T11:02:04.230Z,10.30
2018-07-27T11:03:04.247Z,9.20
2018-07-27T11:04:04.263Z,8.20
2018-07-27T11:05:04.278Z,9.10
2018-07-27T11:06:04.286Z,11.10
2018-07-27T11:07:04.292Z,9.20
2018-07-27T11:08:04.309Z,8.30
2018-07-27T11:09:04.315Z,9.30
2018-07-27T11:10:04.331Z,8.40
2018-07-27T11:11:04.340Z,10.00
2018-07-27T11:12:04.353Z,9.00
2018-07-27T11:13:04.366Z,9.30
2018-07-27T11:14:04.380Z,7.80
2018-07-27T11:15:04.388Z,8.70
2018-07-27T11:16:04.398Z,8.90
2018-07-27T11:17:04.413Z,8.30
2018-07-27T11:18:04.423Z,8.70
2018-07-27T11:19:04.433Z,8.20
2018-07-27T11:20:04.448Z,8.40
2018-07-27T11:21:04.459Z,8.40
2018-07-27T11:22:04.469Z,8.40
2018-07-27T11:23:04.486Z,9.00
2018-07-27T11:24:04.492Z,10.20
2018-07-27T11:25:04.503Z,9.40
2018-07-27T11:26:04.523Z,10.40
2018-07-27T11:27:04.533Z,8.80
2018-07-27T11:28:04.541Z,9.70
2018-07-27T11:29:04.551Z,9.80
2018-07-27T11:30:04.568Z,9.20
2018-07-27T11:31:04.624Z,8.80
2018-07-27T11:32:04.586Z,8.50
2018-07-27T11:33:04.604Z,8.20
2018-07-27T11:34:04.611Z,8.00
2018-07-27T11:35:04.622Z,7.90
2018-07-27T11:36:04.638Z,8.00
2018-07-27T11:37:04.661Z,9.80
2018-07-27T11:38:04.661Z,11.70
2018-07-27T11:39:04.668Z,9.50
2018-07-27T11:40:04.684Z,8.70
2018-07-27T11:41:04.693Z,9.10
2018-07-27T11:42:04.707Z,8.70
2018-07-27T11:43:04.719Z,8.00
2018-07-27T11:44:04.737Z,6.90
2018-07-27T11:45:04.745Z,8.30
2018-07-27T11:46:04.760Z,8.00
2018-07-27T11:47:04.765Z,7.80
2018-07-27T11:48:04.778Z,8.50
2018-07-27T11:49:04.793Z,7.20
2018-07-27T11:50:04.803Z,8.30
2018-07-27T11:51:04.809Z,9.10
2018-07-27T11:52:04.825Z,9.10
2018-07-27T11:53:04.834Z,8.70
2018-07-27T11:54:04.852Z,8.50
2018-07-27T11:55:04.858Z,7.20
2018-07-27T11:56:04.876Z,7.50
2018-07-27T11:57:04.891Z,7.80
2018-07-27T11:58:04.895Z,7.10
2018-07-27T11:59:04.911Z,7.90
2018-07-27T12:00:04.921Z,8.40
2018-07-27T12:01:04.932Z,7.20
2018-07-27T12:02:04.943Z,7.50
2018-07-27T12:03:04.956Z,6.80
2018-07-27T12:04:04.965Z,8.50
2018-07-27T12:05:04.978Z,8.50
2018-07-27T12:06:05.000Z,10.60
2018-07-27T12:07:05.033Z,9.70
2018-07-27T12:08:05.019Z,8.30
2018-07-27T12:09:05.028Z,8.30
2018-07-27T12:10:05.041Z,6.60
2018-07-27T12:11:05.073Z,8.20
2018-07-27T12:12:05.061Z,6.50
2018-07-27T12:13:05.071Z,8.20
2018-07-27T12:14:05.309Z,7.90
2018-07-27T12:15:05.323Z,8.00
2018-07-27T12:16:05.107Z,9.20
2018-07-27T12:17:05.122Z,9.20
2018-07-27T12:18:05.127Z,7.50
2018-07-27T12:19:05.145Z,8.10
2018-07-27T12:20:05.153Z,7.60
2018-07-27T12:21:05.256Z,7.80
2018-07-27T12:22:05.175Z,7.70
2018-07-27T12:23:05.187Z,7.40
2018-07-27T12:24:05.201Z,9.70
2018-07-27T12:25:05.212Z,7.50
2018-07-27T12:26:05.226Z,7.70
2018-07-27T12:27:05.280Z,9.30
2018-07-27T12:28:05.257Z,9.00
2018-07-27T12:29:05.266Z,10.80
2018-07-27T12:30:05.270Z,10.40
2018-07-27T12:31:05.272Z,8.40
2018-07-27T12:32:05.291Z,8.10
2018-07-27T12:33:05.293Z,8.70
2018-07-27T12:34:05.317Z,8.50
2018-07-27T12:35:05.328Z,8.30
2018-07-27T12:36:05.340Z,7.10
2018-07-27T12:37:05.354Z,8.90
2018-07-27T12:38:05.369Z,7.90
2018-07-27T12:39:05.444Z,9.10
2018-07-27T12:40:05.384Z,10.00
2018-07-27T12:41:05.397Z,8.30
2018-07-27T12:42:05.408Z,10.40
2018-07-27T12:43:05.420Z,10.70
2018-07-27T12:44:05.440Z,12.10
2018-07-27T12:45:05.496Z,9.80
2018-07-27T12:46:05.456Z,10.90
2018-07-27T12:47:05.475Z,13.00
2018-07-27T12:48:05.498Z,16.90
2018-07-27T12:49:05.486Z,19.00
2018-07-27T12:50:05.502Z,20.50
2018-07-27T12:51:05.512Z,16.10
2018-07-27T12:52:05.528Z,16.30
2018-07-27T12:53:05.533Z,19.00
2018-07-27T12:54:05.553Z,22.20
2018-07-27T12:55:05.560Z,24.60
2018-07-27T12:56:05.574Z,21.60
2018-07-27T12:57:05.583Z,18.70
2018-07-27T12:58:05.593Z,18.00
2018-07-27T12:59:05.667Z,19.60
2018-07-27T13:00:05.619Z,17.40
2018-07-27T13:01:05.631Z,17.50
2018-07-27T13:02:05.649Z,15.70
2018-07-27T13:03:05.656Z,16.30
2018-07-27T13:04:05.669Z,13.60
2018-07-27T13:05:05.731Z,15.50
2018-07-27T13:06:05.688Z,16.00
2018-07-27T13:07:05.698Z,14.30
2018-07-27T13:08:05.718Z,14.60
2018-07-27T13:09:05.726Z,12.20
2018-07-27T13:10:05.733Z,14.00
2018-07-27T13:11:05.746Z,15.00
2018-07-27T13:12:05.754Z,13.00
2018-07-27T13:13:05.778Z,13.30
2018-07-27T13:14:05.791Z,10.10
2018-07-27T13:15:05.792Z,10.60